sensor_id;sensor_type;location;lat;lon;timestamp;P1;durP1;ratioP1;P2;durP2;ratioP2
5682;SDS011;2864;49.220;8.654;2023-05-07T00:00:03;5.03;;;3.10;;
5682;SDS011;2864;49.220;8.654;2023-05-07T00:02:32;4.90;;;2.93;;
5682;SDS011;2864;49.220;8.654;2023-05-07T00:04:58;6.57;;;3.40;;
5682;SDS011;2864;49.220;8.654;2023-05-07T00:07:24;4.47;;;3.40;;
5682;SDS011;2864;49.220;8.654;2023-05-07T00:09:50;3.27;;;2.93;;
5682;SDS011;2864;49.220;8.654;2023-05-07T00:12:16;4.87;;;3.13;;
5682;SDS011;2864;49.220;8.654;2023-05-07T00:14:42;6.90;;;3.67;;
5682;SDS011;2864;49.220;8.654;2023-05-07T00:17:08;3.90;;;3.50;;
5682;SDS011;2864;49.220;8.654;2023-05-07T00:19:34;7.10;;;3.10;;
5682;SDS011;2864;49.220;8.654;2023-05-07T00:22:00;4.00;;;2.93;;
5682;SDS011;2864;49.220;8.654;2023-05-07T00:24:27;5.53;;;2.70;;
5682;SDS011;2864;49.220;8.654;2023-05-07T00:26:53;5.00;;;2.87;;
5682;SDS011;2864;49.220;8.654;2023-05-07T00:29:19;5.10;;;2.93;;
5682;SDS011;2864;49.220;8.654;2023-05-07T00:31:45;4.50;;;3.10;;
5682;SDS011;2864;49.220;8.654;2023-05-07T00:34:11;6.43;;;3.20;;
5682;SDS011;2864;49.220;8.654;2023-05-07T00:36:37;6.47;;;2.87;;
5682;SDS011;2864;49.220;8.654;2023-05-07T00:39:03;3.90;;;2.90;;
5682;SDS011;2864;49.220;8.654;2023-05-07T00:41:29;4.67;;;2.87;;
5682;SDS011;2864;49.220;8.654;2023-05-07T00:43:56;3.97;;;3.33;;
5682;SDS011;2864;49.220;8.654;2023-05-07T00:46:22;3.77;;;2.87;;
5682;SDS011;2864;49.220;8.654;2023-05-07T00:48:49;3.63;;;2.90;;
5682;SDS011;2864;49.220;8.654;2023-05-07T00:51:16;2.97;;;2.67;;
5682;SDS011;2864;49.220;8.654;2023-05-07T00:53:42;5.37;;;2.90;;
5682;SDS011;2864;49.220;8.654;2023-05-07T00:56:08;3.83;;;3.13;;
5682;SDS011;2864;49.220;8.654;2023-05-07T00:58:35;4.43;;;3.00;;
5682;SDS011;2864;49.220;8.654;2023-05-07T01:01:01;6.00;;;3.30;;
5682;SDS011;2864;49.220;8.654;2023-05-07T01:03:27;5.90;;;3.10;;
5682;SDS011;2864;49.220;8.654;2023-05-07T01:05:53;4.37;;;2.77;;
5682;SDS011;2864;49.220;8.654;2023-05-07T01:08:20;6.50;;;3.23;;
5682;SDS011;2864;49.220;8.654;2023-05-07T01:10:49;3.63;;;2.90;;
5682;SDS011;2864;49.220;8.654;2023-05-07T01:13:17;4.97;;;2.90;;
5682;SDS011;2864;49.220;8.654;2023-05-07T01:15:44;5.80;;;3.13;;
5682;SDS011;2864;49.220;8.654;2023-05-07T01:18:10;3.93;;;2.87;;
5682;SDS011;2864;49.220;8.654;2023-05-07T01:20:36;4.90;;;2.80;;
5682;SDS011;2864;49.220;8.654;2023-05-07T01:23:02;6.07;;;2.73;;
5682;SDS011;2864;49.220;8.654;2023-05-07T01:25:28;8.70;;;2.93;;
5682;SDS011;2864;49.220;8.654;2023-05-07T01:27:55;5.70;;;2.67;;
5682;SDS011;2864;49.220;8.654;2023-05-07T01:30:21;3.20;;;2.93;;
5682;SDS011;2864;49.220;8.654;2023-05-07T01:32:49;4.00;;;2.40;;
5682;SDS011;2864;49.220;8.654;2023-05-07T01:35:18;3.23;;;2.70;;
5682;SDS011;2864;49.220;8.654;2023-05-07T01:37:47;4.43;;;2.80;;
5682;SDS011;2864;49.220;8.654;2023-05-07T01:40:13;5.30;;;2.77;;
5682;SDS011;2864;49.220;8.654;2023-05-07T01:42:39;3.00;;;2.70;;
5682;SDS011;2864;49.220;8.654;2023-05-07T01:45:08;4.77;;;2.43;;
5682;SDS011;2864;49.220;8.654;2023-05-07T01:47:34;4.33;;;2.70;;
5682;SDS011;2864;49.220;8.654;2023-05-07T01:50:01;2.93;;;2.63;;
5682;SDS011;2864;49.220;8.654;2023-05-07T01:52:27;3.07;;;2.70;;
5682;SDS011;2864;49.220;8.654;2023-05-07T01:54:53;3.70;;;2.83;;
5682;SDS011;2864;49.220;8.654;2023-05-07T01:57:19;4.53;;;2.80;;
5682;SDS011;2864;49.220;8.654;2023-05-07T01:59:45;5.17;;;3.00;;
5682;SDS011;2864;49.220;8.654;2023-05-07T02:02:11;3.20;;;2.90;;
5682;SDS011;2864;49.220;8.654;2023-05-07T02:04:37;7.63;;;3.00;;
5682;SDS011;2864;49.220;8.654;2023-05-07T02:07:03;3.17;;;2.87;;
5682;SDS011;2864;49.220;8.654;2023-05-07T02:09:29;5.10;;;3.17;;
5682;SDS011;2864;49.220;8.654;2023-05-07T02:11:55;6.37;;;3.30;;
5682;SDS011;2864;49.220;8.654;2023-05-07T02:14:21;5.43;;;3.17;;
5682;SDS011;2864;49.220;8.654;2023-05-07T02:16:47;3.73;;;2.80;;
5682;SDS011;2864;49.220;8.654;2023-05-07T02:19:13;4.33;;;2.80;;
5682;SDS011;2864;49.220;8.654;2023-05-07T02:21:39;3.47;;;2.67;;
5682;SDS011;2864;49.220;8.654;2023-05-07T02:24:05;3.57;;;3.03;;
5682;SDS011;2864;49.220;8.654;2023-05-07T02:26:31;5.07;;;2.90;;
5682;SDS011;2864;49.220;8.654;2023-05-07T02:28:57;3.47;;;2.97;;
5682;SDS011;2864;49.220;8.654;2023-05-07T02:31:23;4.20;;;2.97;;
5682;SDS011;2864;49.220;8.654;2023-05-07T02:33:49;4.17;;;2.87;;
5682;SDS011;2864;49.220;8.654;2023-05-07T02:36:15;3.90;;;2.87;;
5682;SDS011;2864;49.220;8.654;2023-05-07T02:38:41;3.83;;;3.30;;
5682;SDS011;2864;49.220;8.654;2023-05-07T02:41:07;5.40;;;3.27;;
5682;SDS011;2864;49.220;8.654;2023-05-07T02:43:33;5.13;;;3.23;;
5682;SDS011;2864;49.220;8.654;2023-05-07T02:46:00;3.20;;;2.90;;
5682;SDS011;2864;49.220;8.654;2023-05-07T02:48:26;3.40;;;3.10;;
5682;SDS011;2864;49.220;8.654;2023-05-07T02:50:52;5.77;;;3.03;;
5682;SDS011;2864;49.220;8.654;2023-05-07T02:53:18;4.60;;;2.97;;
5682;SDS011;2864;49.220;8.654;2023-05-07T02:55:44;3.30;;;3.00;;
5682;SDS011;2864;49.220;8.654;2023-05-07T02:58:10;4.43;;;3.20;;
5682;SDS011;2864;49.220;8.654;2023-05-07T03:00:36;3.57;;;3.20;;
5682;SDS011;2864;49.220;8.654;2023-05-07T03:03:02;3.50;;;3.20;;
5682;SDS011;2864;49.220;8.654;2023-05-07T03:05:28;3.77;;;3.30;;
5682;SDS011;2864;49.220;8.654;2023-05-07T03:07:54;4.93;;;3.60;;
5682;SDS011;2864;49.220;8.654;2023-05-07T03:10:20;3.77;;;3.20;;
5682;SDS011;2864;49.220;8.654;2023-05-07T03:12:46;3.17;;;2.80;;
5682;SDS011;2864;49.220;8.654;2023-05-07T03:15:12;3.37;;;2.67;;
5682;SDS011;2864;49.220;8.654;2023-05-07T03:17:38;3.73;;;3.20;;
5682;SDS011;2864;49.220;8.654;2023-05-07T03:20:04;3.60;;;2.80;;
5682;SDS011;2864;49.220;8.654;2023-05-07T03:22:30;4.70;;;3.30;;
5682;SDS011;2864;49.220;8.654;2023-05-07T03:24:56;3.90;;;2.93;;
5682;SDS011;2864;49.220;8.654;2023-05-07T03:27:22;6.50;;;3.27;;
5682;SDS011;2864;49.220;8.654;2023-05-07T03:29:48;5.10;;;2.87;;
5682;SDS011;2864;49.220;8.654;2023-05-07T03:32:14;3.10;;;2.80;;
5682;SDS011;2864;49.220;8.654;2023-05-07T03:34:40;4.60;;;3.70;;
5682;SDS011;2864;49.220;8.654;2023-05-07T03:37:06;2.90;;;2.60;;
5682;SDS011;2864;49.220;8.654;2023-05-07T03:39:32;3.30;;;3.00;;
5682;SDS011;2864;49.220;8.654;2023-05-07T03:41:58;6.00;;;3.40;;
5682;SDS011;2864;49.220;8.654;2023-05-07T03:44:24;3.40;;;3.10;;
5682;SDS011;2864;49.220;8.654;2023-05-07T03:46:50;5.43;;;2.90;;
5682;SDS011;2864;49.220;8.654;2023-05-07T03:49:16;5.13;;;3.20;;
5682;SDS011;2864;49.220;8.654;2023-05-07T03:51:42;4.80;;;3.60;;
5682;SDS011;2864;49.220;8.654;2023-05-07T03:54:08;4.80;;;3.47;;
5682;SDS011;2864;49.220;8.654;2023-05-07T03:56:34;3.87;;;3.30;;
5682;SDS011;2864;49.220;8.654;2023-05-07T03:59:00;7.07;;;3.47;;
5682;SDS011;2864;49.220;8.654;2023-05-07T04:01:26;3.33;;;3.03;;
5682;SDS011;2864;49.220;8.654;2023-05-07T04:03:52;7.80;;;4.30;;
5682;SDS011;2864;49.220;8.654;2023-05-07T04:06:18;4.03;;;3.23;;
5682;SDS011;2864;49.220;8.654;2023-05-07T04:08:44;3.87;;;3.30;;
5682;SDS011;2864;49.220;8.654;2023-05-07T04:11:10;3.80;;;3.40;;
5682;SDS011;2864;49.220;8.654;2023-05-07T04:13:36;3.50;;;3.07;;
5682;SDS011;2864;49.220;8.654;2023-05-07T04:16:03;3.83;;;2.80;;
5682;SDS011;2864;49.220;8.654;2023-05-07T04:18:29;3.60;;;2.63;;
5682;SDS011;2864;49.220;8.654;2023-05-07T04:20:55;4.00;;;3.20;;
5682;SDS011;2864;49.220;8.654;2023-05-07T04:23:21;4.07;;;3.20;;
5682;SDS011;2864;49.220;8.654;2023-05-07T04:25:47;6.33;;;3.60;;
5682;SDS011;2864;49.220;8.654;2023-05-07T04:28:13;3.33;;;2.80;;
5682;SDS011;2864;49.220;8.654;2023-05-07T04:30:39;3.57;;;3.27;;
5682;SDS011;2864;49.220;8.654;2023-05-07T04:33:06;3.33;;;3.03;;
5682;SDS011;2864;49.220;8.654;2023-05-07T04:35:32;3.50;;;2.97;;
5682;SDS011;2864;49.220;8.654;2023-05-07T04:37:58;4.77;;;3.20;;
5682;SDS011;2864;49.220;8.654;2023-05-07T04:40:24;4.43;;;3.10;;
5682;SDS011;2864;49.220;8.654;2023-05-07T04:42:50;3.13;;;2.83;;
5682;SDS011;2864;49.220;8.654;2023-05-07T04:45:18;5.80;;;3.20;;
5682;SDS011;2864;49.220;8.654;2023-05-07T04:47:43;3.83;;;3.20;;
5682;SDS011;2864;49.220;8.654;2023-05-07T04:50:09;4.27;;;3.03;;
5682;SDS011;2864;49.220;8.654;2023-05-07T04:52:36;3.00;;;2.57;;
5682;SDS011;2864;49.220;8.654;2023-05-07T04:55:02;3.70;;;2.73;;
5682;SDS011;2864;49.220;8.654;2023-05-07T04:57:28;3.57;;;2.60;;
5682;SDS011;2864;49.220;8.654;2023-05-07T04:59:54;3.50;;;2.90;;
5682;SDS011;2864;49.220;8.654;2023-05-07T05:02:20;3.20;;;2.90;;
5682;SDS011;2864;49.220;8.654;2023-05-07T05:04:46;3.73;;;2.90;;
5682;SDS011;2864;49.220;8.654;2023-05-07T05:07:12;3.27;;;2.90;;
5682;SDS011;2864;49.220;8.654;2023-05-07T05:09:38;4.73;;;3.10;;
5682;SDS011;2864;49.220;8.654;2023-05-07T05:12:04;4.50;;;2.77;;
5682;SDS011;2864;49.220;8.654;2023-05-07T05:14:32;3.33;;;2.50;;
5682;SDS011;2864;49.220;8.654;2023-05-07T05:16:58;3.77;;;2.50;;
5682;SDS011;2864;49.220;8.654;2023-05-07T05:19:24;2.70;;;2.50;;
5682;SDS011;2864;49.220;8.654;2023-05-07T05:21:49;3.57;;;2.40;;
5682;SDS011;2864;49.220;8.654;2023-05-07T05:24:15;4.03;;;2.60;;
5682;SDS011;2864;49.220;8.654;2023-05-07T05:26:41;4.53;;;2.50;;
5682;SDS011;2864;49.220;8.654;2023-05-07T05:29:07;3.43;;;2.57;;
5682;SDS011;2864;49.220;8.654;2023-05-07T05:31:33;3.73;;;2.37;;
5682;SDS011;2864;49.220;8.654;2023-05-07T05:34:00;6.03;;;2.20;;
5682;SDS011;2864;49.220;8.654;2023-05-07T05:36:26;2.83;;;2.30;;
5682;SDS011;2864;49.220;8.654;2023-05-07T05:38:52;2.57;;;2.37;;
5682;SDS011;2864;49.220;8.654;2023-05-07T05:41:18;2.77;;;2.10;;
5682;SDS011;2864;49.220;8.654;2023-05-07T05:43:44;2.57;;;2.37;;
5682;SDS011;2864;49.220;8.654;2023-05-07T05:46:10;3.13;;;2.30;;
5682;SDS011;2864;49.220;8.654;2023-05-07T05:48:36;3.63;;;2.20;;
5682;SDS011;2864;49.220;8.654;2023-05-07T05:51:02;2.93;;;2.00;;
5682;SDS011;2864;49.220;8.654;2023-05-07T05:53:28;6.70;;;2.40;;
5682;SDS011;2864;49.220;8.654;2023-05-07T05:55:54;3.87;;;2.40;;
5682;SDS011;2864;49.220;8.654;2023-05-07T05:58:20;4.73;;;2.37;;
5682;SDS011;2864;49.220;8.654;2023-05-07T06:00:46;3.27;;;2.20;;
5682;SDS011;2864;49.220;8.654;2023-05-07T06:03:13;2.97;;;2.43;;
5682;SDS011;2864;49.220;8.654;2023-05-07T06:05:39;2.73;;;2.00;;
5682;SDS011;2864;49.220;8.654;2023-05-07T06:08:05;5.10;;;2.20;;
5682;SDS011;2864;49.220;8.654;2023-05-07T06:10:31;4.77;;;2.17;;
5682;SDS011;2864;49.220;8.654;2023-05-07T06:12:57;4.27;;;2.47;;
5682;SDS011;2864;49.220;8.654;2023-05-07T06:15:23;2.73;;;2.30;;
5682;SDS011;2864;49.220;8.654;2023-05-07T06:17:48;2.70;;;2.50;;
5682;SDS011;2864;49.220;8.654;2023-05-07T06:20:14;2.83;;;2.50;;
5682;SDS011;2864;49.220;8.654;2023-05-07T06:22:41;4.10;;;2.40;;
5682;SDS011;2864;49.220;8.654;2023-05-07T06:25:07;3.50;;;2.60;;
5682;SDS011;2864;49.220;8.654;2023-05-07T06:27:33;3.63;;;2.60;;
5682;SDS011;2864;49.220;8.654;2023-05-07T06:29:58;2.33;;;2.13;;
5682;SDS011;2864;49.220;8.654;2023-05-07T06:32:25;2.43;;;2.20;;
5682;SDS011;2864;49.220;8.654;2023-05-07T06:34:51;3.27;;;2.20;;
5682;SDS011;2864;49.220;8.654;2023-05-07T06:37:17;3.10;;;2.20;;
5682;SDS011;2864;49.220;8.654;2023-05-07T06:39:43;2.60;;;2.30;;
5682;SDS011;2864;49.220;8.654;2023-05-07T06:42:09;3.63;;;2.40;;
5682;SDS011;2864;49.220;8.654;2023-05-07T06:44:35;5.53;;;2.30;;
5682;SDS011;2864;49.220;8.654;2023-05-07T06:47:01;2.33;;;2.13;;
5682;SDS011;2864;49.220;8.654;2023-05-07T06:49:26;2.67;;;2.30;;
5682;SDS011;2864;49.220;8.654;2023-05-07T06:51:52;3.53;;;2.50;;
5682;SDS011;2864;49.220;8.654;2023-05-07T06:54:18;4.03;;;2.30;;
5682;SDS011;2864;49.220;8.654;2023-05-07T06:56:45;3.60;;;2.50;;
5682;SDS011;2864;49.220;8.654;2023-05-07T06:59:11;2.60;;;2.30;;
5682;SDS011;2864;49.220;8.654;2023-05-07T07:01:37;4.77;;;2.63;;
5682;SDS011;2864;49.220;8.654;2023-05-07T07:04:03;3.63;;;2.17;;
5682;SDS011;2864;49.220;8.654;2023-05-07T07:06:29;2.10;;;1.90;;
5682;SDS011;2864;49.220;8.654;2023-05-07T07:08:56;3.40;;;2.00;;
5682;SDS011;2864;49.220;8.654;2023-05-07T07:11:22;2.37;;;2.00;;
5682;SDS011;2864;49.220;8.654;2023-05-07T07:13:48;3.13;;;2.07;;
5682;SDS011;2864;49.220;8.654;2023-05-07T07:16:15;2.63;;;2.37;;
5682;SDS011;2864;49.220;8.654;2023-05-07T07:18:41;3.27;;;2.07;;
5682;SDS011;2864;49.220;8.654;2023-05-07T07:21:07;2.97;;;1.83;;
5682;SDS011;2864;49.220;8.654;2023-05-07T07:23:33;2.83;;;2.03;;
5682;SDS011;2864;49.220;8.654;2023-05-07T07:25:59;2.23;;;2.03;;
5682;SDS011;2864;49.220;8.654;2023-05-07T07:28:25;5.27;;;2.10;;
5682;SDS011;2864;49.220;8.654;2023-05-07T07:30:51;2.93;;;2.27;;
5682;SDS011;2864;49.220;8.654;2023-05-07T07:33:17;4.30;;;2.23;;
5682;SDS011;2864;49.220;8.654;2023-05-07T07:35:43;4.30;;;2.03;;
5682;SDS011;2864;49.220;8.654;2023-05-07T07:38:09;2.97;;;2.00;;
5682;SDS011;2864;49.220;8.654;2023-05-07T07:40:35;4.43;;;2.07;;
5682;SDS011;2864;49.220;8.654;2023-05-07T07:43:01;3.47;;;2.10;;
5682;SDS011;2864;49.220;8.654;2023-05-07T07:45:27;2.50;;;2.10;;
5682;SDS011;2864;49.220;8.654;2023-05-07T07:47:53;2.17;;;1.97;;
5682;SDS011;2864;49.220;8.654;2023-05-07T07:50:20;4.17;;;2.10;;
5682;SDS011;2864;49.220;8.654;2023-05-07T07:52:46;3.63;;;1.97;;
5682;SDS011;2864;49.220;8.654;2023-05-07T07:55:12;4.27;;;2.00;;
5682;SDS011;2864;49.220;8.654;2023-05-07T07:57:37;2.93;;;2.27;;
5682;SDS011;2864;49.220;8.654;2023-05-07T08:00:04;3.83;;;2.00;;
5682;SDS011;2864;49.220;8.654;2023-05-07T08:02:32;3.50;;;2.03;;
5682;SDS011;2864;49.220;8.654;2023-05-07T08:04:58;3.03;;;2.10;;
5682;SDS011;2864;49.220;8.654;2023-05-07T08:07:23;2.90;;;2.00;;
5682;SDS011;2864;49.220;8.654;2023-05-07T08:09:49;3.77;;;2.10;;
5682;SDS011;2864;49.220;8.654;2023-05-07T08:12:16;2.37;;;1.80;;
5682;SDS011;2864;49.220;8.654;2023-05-07T08:14:42;4.17;;;1.73;;
5682;SDS011;2864;49.220;8.654;2023-05-07T08:17:08;3.23;;;2.50;;
5682;SDS011;2864;49.220;8.654;2023-05-07T08:19:35;2.90;;;2.00;;
5682;SDS011;2864;49.220;8.654;2023-05-07T08:22:02;2.23;;;2.03;;
5682;SDS011;2864;49.220;8.654;2023-05-07T08:24:29;4.17;;;1.80;;
5682;SDS011;2864;49.220;8.654;2023-05-07T08:26:55;2.30;;;2.10;;
5682;SDS011;2864;49.220;8.654;2023-05-07T08:29:21;2.10;;;1.90;;
5682;SDS011;2864;49.220;8.654;2023-05-07T08:31:47;2.93;;;1.93;;
5682;SDS011;2864;49.220;8.654;2023-05-07T08:34:13;2.33;;;1.93;;
5682;SDS011;2864;49.220;8.654;2023-05-07T08:36:39;2.57;;;2.20;;
5682;SDS011;2864;49.220;8.654;2023-05-07T08:39:06;3.43;;;2.20;;
5682;SDS011;2864;49.220;8.654;2023-05-07T08:41:32;3.47;;;2.30;;
5682;SDS011;2864;49.220;8.654;2023-05-07T08:43:59;3.07;;;1.97;;
5682;SDS011;2864;49.220;8.654;2023-05-07T08:46:31;4.47;;;2.40;;
5682;SDS011;2864;49.220;8.654;2023-05-07T08:48:57;2.60;;;2.00;;
5682;SDS011;2864;49.220;8.654;2023-05-07T08:51:23;3.07;;;2.10;;
5682;SDS011;2864;49.220;8.654;2023-05-07T08:53:49;3.60;;;1.93;;
5682;SDS011;2864;49.220;8.654;2023-05-07T08:56:15;2.33;;;1.90;;
5682;SDS011;2864;49.220;8.654;2023-05-07T08:58:42;2.50;;;2.07;;
5682;SDS011;2864;49.220;8.654;2023-05-07T09:01:09;4.30;;;2.20;;
5682;SDS011;2864;49.220;8.654;2023-05-07T09:03:38;3.87;;;2.20;;
5682;SDS011;2864;49.220;8.654;2023-05-07T09:06:04;2.70;;;2.10;;
5682;SDS011;2864;49.220;8.654;2023-05-07T09:08:32;2.30;;;2.10;;
5682;SDS011;2864;49.220;8.654;2023-05-07T09:10:58;4.13;;;2.20;;
5682;SDS011;2864;49.220;8.654;2023-05-07T09:13:24;3.03;;;2.00;;
5682;SDS011;2864;49.220;8.654;2023-05-07T09:15:50;3.73;;;2.23;;
5682;SDS011;2864;49.220;8.654;2023-05-07T09:18:16;2.67;;;2.30;;
5682;SDS011;2864;49.220;8.654;2023-05-07T09:20:42;3.90;;;2.33;;
5682;SDS011;2864;49.220;8.654;2023-05-07T09:23:08;2.33;;;2.00;;
5682;SDS011;2864;49.220;8.654;2023-05-07T09:25:35;3.73;;;2.20;;
5682;SDS011;2864;49.220;8.654;2023-05-07T09:28:01;5.30;;;2.20;;
5682;SDS011;2864;49.220;8.654;2023-05-07T09:30:28;3.30;;;2.20;;
5682;SDS011;2864;49.220;8.654;2023-05-07T09:32:54;3.70;;;1.90;;
5682;SDS011;2864;49.220;8.654;2023-05-07T09:35:22;3.13;;;2.27;;
5682;SDS011;2864;49.220;8.654;2023-05-07T09:37:52;2.97;;;2.20;;
5682;SDS011;2864;49.220;8.654;2023-05-07T09:40:21;2.50;;;2.17;;
5682;SDS011;2864;49.220;8.654;2023-05-07T09:42:48;3.00;;;2.40;;
5682;SDS011;2864;49.220;8.654;2023-05-07T09:45:16;2.87;;;2.00;;
5682;SDS011;2864;49.220;8.654;2023-05-07T09:47:45;4.75;;;2.13;;
5682;SDS011;2864;49.220;8.654;2023-05-07T09:50:12;3.40;;;2.10;;
5682;SDS011;2864;49.220;8.654;2023-05-07T09:52:40;2.40;;;2.10;;
5682;SDS011;2864;49.220;8.654;2023-05-07T09:55:07;2.10;;;1.90;;
5682;SDS011;2864;49.220;8.654;2023-05-07T09:57:33;2.53;;;2.30;;
5682;SDS011;2864;49.220;8.654;2023-05-07T10:00:00;4.97;;;2.20;;
5682;SDS011;2864;49.220;8.654;2023-05-07T10:02:29;3.53;;;2.20;;
5682;SDS011;2864;49.220;8.654;2023-05-07T10:04:56;2.20;;;2.00;;
5682;SDS011;2864;49.220;8.654;2023-05-07T10:07:23;2.78;;;2.10;;
5682;SDS011;2864;49.220;8.654;2023-05-07T10:09:50;4.28;;;2.00;;
5682;SDS011;2864;49.220;8.654;2023-05-07T10:12:16;3.23;;;2.00;;
5682;SDS011;2864;49.220;8.654;2023-05-07T10:14:43;3.70;;;2.50;;
5682;SDS011;2864;49.220;8.654;2023-05-07T10:17:09;4.80;;;2.03;;
5682;SDS011;2864;49.220;8.654;2023-05-07T10:19:37;4.30;;;2.57;;
5682;SDS011;2864;49.220;8.654;2023-05-07T10:22:05;3.28;;;1.90;;
5682;SDS011;2864;49.220;8.654;2023-05-07T10:24:31;5.00;;;2.20;;
5682;SDS011;2864;49.220;8.654;2023-05-07T10:26:59;5.00;;;2.00;;
5682;SDS011;2864;49.220;8.654;2023-05-07T10:30:12;5.30;;;2.10;;
5682;SDS011;2864;49.220;8.654;2023-05-07T10:34:57;2.33;;;2.00;;
5682;SDS011;2864;49.220;8.654;2023-05-07T10:37:27;5.20;;;2.20;;
5682;SDS011;2864;49.220;8.654;2023-05-07T10:39:53;6.63;;;2.35;;
5682;SDS011;2864;49.220;8.654;2023-05-07T10:42:19;3.22;;;1.92;;
5682;SDS011;2864;49.220;8.654;2023-05-07T10:44:45;4.95;;;2.60;;
5682;SDS011;2864;49.220;8.654;2023-05-07T10:47:12;3.47;;;2.65;;
5682;SDS011;2864;49.220;8.654;2023-05-07T10:52:17;3.50;;;1.92;;
5682;SDS011;2864;49.220;8.654;2023-05-07T10:54:44;4.93;;;2.40;;
5682;SDS011;2864;49.220;8.654;2023-05-07T10:59:55;2.50;;;1.90;;
5682;SDS011;2864;49.220;8.654;2023-05-07T11:02:21;2.63;;;1.98;;
5682;SDS011;2864;49.220;8.654;2023-05-07T11:07:32;3.17;;;2.08;;
5682;SDS011;2864;49.220;8.654;2023-05-07T11:10:01;3.90;;;2.00;;
5682;SDS011;2864;49.220;8.654;2023-05-07T11:17:30;2.42;;;2.22;;
5682;SDS011;2864;49.220;8.654;2023-05-07T11:19:57;2.35;;;2.08;;
5682;SDS011;2864;49.220;8.654;2023-05-07T11:25:00;3.22;;;1.83;;
5682;SDS011;2864;49.220;8.654;2023-05-07T11:27:27;2.55;;;1.95;;
5682;SDS011;2864;49.220;8.654;2023-05-07T11:29:53;2.72;;;2.20;;
5682;SDS011;2864;49.220;8.654;2023-05-07T11:32:25;4.55;;;2.10;;
5682;SDS011;2864;49.220;8.654;2023-05-07T11:34:52;3.00;;;2.30;;
5682;SDS011;2864;49.220;8.654;2023-05-07T11:37:19;2.20;;;2.00;;
5682;SDS011;2864;49.220;8.654;2023-05-07T11:39:45;3.88;;;2.17;;
5682;SDS011;2864;49.220;8.654;2023-05-07T11:42:24;4.28;;;2.30;;
5682;SDS011;2864;49.220;8.654;2023-05-07T11:44:51;3.17;;;2.42;;
5682;SDS011;2864;49.220;8.654;2023-05-07T11:47:17;3.15;;;2.20;;
5682;SDS011;2864;49.220;8.654;2023-05-07T11:49:46;5.78;;;2.30;;
5682;SDS011;2864;49.220;8.654;2023-05-07T11:52:12;4.72;;;1.95;;
5682;SDS011;2864;49.220;8.654;2023-05-07T11:54:38;3.55;;;2.00;;
5682;SDS011;2864;49.220;8.654;2023-05-07T11:57:04;2.10;;;1.80;;
5682;SDS011;2864;49.220;8.654;2023-05-07T11:59:41;3.35;;;2.00;;
5682;SDS011;2864;49.220;8.654;2023-05-07T12:02:09;2.53;;;1.83;;
5682;SDS011;2864;49.220;8.654;2023-05-07T12:04:35;2.25;;;2.00;;
5682;SDS011;2864;49.220;8.654;2023-05-07T12:07:01;3.85;;;2.05;;
5682;SDS011;2864;49.220;8.654;2023-05-07T12:09:27;2.90;;;1.85;;
5682;SDS011;2864;49.220;8.654;2023-05-07T12:11:53;2.53;;;2.03;;
5682;SDS011;2864;49.220;8.654;2023-05-07T12:14:21;2.03;;;1.80;;
5682;SDS011;2864;49.220;8.654;2023-05-07T12:16:46;3.38;;;1.80;;
5682;SDS011;2864;49.220;8.654;2023-05-07T12:19:13;2.25;;;1.73;;
5682;SDS011;2864;49.220;8.654;2023-05-07T12:21:39;2.03;;;1.75;;
5682;SDS011;2864;49.220;8.654;2023-05-07T12:24:05;2.33;;;1.90;;
5682;SDS011;2864;49.220;8.654;2023-05-07T12:26:31;2.97;;;2.22;;
5682;SDS011;2864;49.220;8.654;2023-05-07T12:28:57;3.05;;;2.10;;
5682;SDS011;2864;49.220;8.654;2023-05-07T12:31:25;3.55;;;1.92;;
5682;SDS011;2864;49.220;8.654;2023-05-07T12:33:51;2.78;;;2.05;;
5682;SDS011;2864;49.220;8.654;2023-05-07T12:36:18;4.03;;;2.00;;
5682;SDS011;2864;49.220;8.654;2023-05-07T12:38:44;3.28;;;2.10;;
5682;SDS011;2864;49.220;8.654;2023-05-07T12:41:10;3.17;;;2.10;;
5682;SDS011;2864;49.220;8.654;2023-05-07T12:43:37;3.47;;;2.20;;
5682;SDS011;2864;49.220;8.654;2023-05-07T12:46:04;2.50;;;2.00;;
5682;SDS011;2864;49.220;8.654;2023-05-07T12:48:31;3.80;;;2.13;;
5682;SDS011;2864;49.220;8.654;2023-05-07T12:50:58;3.15;;;2.00;;
5682;SDS011;2864;49.220;8.654;2023-05-07T12:53:26;2.60;;;1.75;;
5682;SDS011;2864;49.220;8.654;2023-05-07T12:55:53;3.75;;;2.10;;
5682;SDS011;2864;49.220;8.654;2023-05-07T12:58:26;3.15;;;2.08;;
5682;SDS011;2864;49.220;8.654;2023-05-07T13:00:53;2.58;;;2.28;;
5682;SDS011;2864;49.220;8.654;2023-05-07T13:05:49;3.72;;;2.13;;
5682;SDS011;2864;49.220;8.654;2023-05-07T13:08:31;2.42;;;2.22;;
5682;SDS011;2864;49.220;8.654;2023-05-07T13:10:57;5.40;;;1.90;;
5682;SDS011;2864;49.220;8.654;2023-05-07T13:13:24;2.63;;;1.83;;
5682;SDS011;2864;49.220;8.654;2023-05-07T13:15:50;2.75;;;1.92;;
5682;SDS011;2864;49.220;8.654;2023-05-07T13:18:16;3.53;;;2.28;;
5682;SDS011;2864;49.220;8.654;2023-05-07T13:20:42;2.88;;;2.30;;
5682;SDS011;2864;49.220;8.654;2023-05-07T13:23:08;2.65;;;2.15;;
5682;SDS011;2864;49.220;8.654;2023-05-07T13:25:34;5.25;;;2.03;;
5682;SDS011;2864;49.220;8.654;2023-05-07T13:28:00;2.75;;;2.28;;
5682;SDS011;2864;49.220;8.654;2023-05-07T13:30:26;3.38;;;1.90;;
5682;SDS011;2864;49.220;8.654;2023-05-07T13:32:53;3.17;;;1.90;;
5682;SDS011;2864;49.220;8.654;2023-05-07T13:35:21;3.65;;;2.15;;
5682;SDS011;2864;49.220;8.654;2023-05-07T13:37:46;2.78;;;2.17;;
5682;SDS011;2864;49.220;8.654;2023-05-07T13:40:14;4.40;;;2.30;;
5682;SDS011;2864;49.220;8.654;2023-05-07T13:42:40;2.67;;;1.90;;
5682;SDS011;2864;49.220;8.654;2023-05-07T13:45:06;4.05;;;1.92;;
5682;SDS011;2864;49.220;8.654;2023-05-07T13:47:34;3.30;;;2.08;;
5682;SDS011;2864;49.220;8.654;2023-05-07T13:50:01;4.75;;;1.90;;
5682;SDS011;2864;49.220;8.654;2023-05-07T13:52:27;2.88;;;2.30;;
5682;SDS011;2864;49.220;8.654;2023-05-07T13:54:53;2.38;;;2.13;;
5682;SDS011;2864;49.220;8.654;2023-05-07T13:57:21;3.93;;;1.80;;
5682;SDS011;2864;49.220;8.654;2023-05-07T13:59:47;10.07;;;3.07;;
5682;SDS011;2864;49.220;8.654;2023-05-07T14:02:13;10.53;;;3.70;;
5682;SDS011;2864;49.220;8.654;2023-05-07T14:04:40;13.57;;;4.70;;
5682;SDS011;2864;49.220;8.654;2023-05-07T14:07:06;15.23;;;3.30;;
5682;SDS011;2864;49.220;8.654;2023-05-07T14:09:32;17.20;;;4.33;;
5682;SDS011;2864;49.220;8.654;2023-05-07T14:11:58;8.97;;;3.23;;
5682;SDS011;2864;49.220;8.654;2023-05-07T14:14:24;9.50;;;4.13;;
5682;SDS011;2864;49.220;8.654;2023-05-07T14:16:50;11.53;;;3.77;;
5682;SDS011;2864;49.220;8.654;2023-05-07T14:19:16;11.53;;;3.97;;
5682;SDS011;2864;49.220;8.654;2023-05-07T14:21:42;6.83;;;3.97;;
5682;SDS011;2864;49.220;8.654;2023-05-07T14:24:08;9.63;;;3.40;;
5682;SDS011;2864;49.220;8.654;2023-05-07T14:26:34;8.27;;;4.17;;
5682;SDS011;2864;49.220;8.654;2023-05-07T14:29:00;4.33;;;2.90;;
5682;SDS011;2864;49.220;8.654;2023-05-07T14:31:26;6.57;;;3.47;;
5682;SDS011;2864;49.220;8.654;2023-05-07T14:33:52;7.73;;;3.60;;
5682;SDS011;2864;49.220;8.654;2023-05-07T14:36:18;8.30;;;3.50;;
5682;SDS011;2864;49.220;8.654;2023-05-07T14:38:50;4.00;;;3.30;;
5682;SDS011;2864;49.220;8.654;2023-05-07T14:41:17;7.37;;;3.27;;
5682;SDS011;2864;49.220;8.654;2023-05-07T14:43:43;4.27;;;2.73;;
5682;SDS011;2864;49.220;8.654;2023-05-07T14:46:14;7.20;;;3.00;;
5682;SDS011;2864;49.220;8.654;2023-05-07T14:48:40;6.80;;;2.87;;
5682;SDS011;2864;49.220;8.654;2023-05-07T14:51:06;4.80;;;3.00;;
5682;SDS011;2864;49.220;8.654;2023-05-07T14:53:33;8.67;;;5.43;;
5682;SDS011;2864;49.220;8.654;2023-05-07T14:55:59;7.73;;;4.63;;
5682;SDS011;2864;49.220;8.654;2023-05-07T14:58:25;8.73;;;4.80;;
5682;SDS011;2864;49.220;8.654;2023-05-07T15:00:51;7.13;;;4.20;;
5682;SDS011;2864;49.220;8.654;2023-05-07T15:03:17;5.67;;;3.30;;
5682;SDS011;2864;49.220;8.654;2023-05-07T15:05:43;6.27;;;3.30;;
5682;SDS011;2864;49.220;8.654;2023-05-07T15:08:09;7.67;;;3.10;;
5682;SDS011;2864;49.220;8.654;2023-05-07T15:10:36;5.23;;;2.90;;
5682;SDS011;2864;49.220;8.654;2023-05-07T15:13:05;8.20;;;3.50;;
5682;SDS011;2864;49.220;8.654;2023-05-07T15:15:31;9.37;;;3.80;;
5682;SDS011;2864;49.220;8.654;2023-05-07T15:17:57;7.17;;;3.60;;
5682;SDS011;2864;49.220;8.654;2023-05-07T15:20:25;6.13;;;3.97;;
5682;SDS011;2864;49.220;8.654;2023-05-07T15:22:51;10.03;;;4.20;;
5682;SDS011;2864;49.220;8.654;2023-05-07T15:25:17;8.17;;;3.90;;
5682;SDS011;2864;49.220;8.654;2023-05-07T15:27:43;8.67;;;4.40;;
5682;SDS011;2864;49.220;8.654;2023-05-07T15:30:09;7.00;;;3.70;;